createdAt,value
2023-05-03T00:02:10.418Z,3.00
2023-05-03T00:04:38.925Z,3.10
2023-05-03T00:07:07.554Z,2.80
2023-05-03T00:09:37.463Z,3.37
2023-05-03T00:12:06.475Z,3.10
2023-05-03T00:14:34.912Z,2.97
2023-05-03T00:17:03.287Z,3.80
2023-05-03T00:19:33.685Z,2.33
2023-05-03T00:22:02.276Z,2.77
2023-05-03T00:24:30.608Z,2.97
2023-05-03T00:27:00.723Z,3.00
2023-05-03T00:29:29.000Z,2.50
2023-05-03T00:31:57.493Z,2.90
2023-05-03T00:34:25.974Z,2.60
2023-05-03T00:36:54.403Z,2.60
2023-05-03T00:39:22.718Z,2.60
2023-05-03T00:41:51.054Z,2.70
2023-05-03T00:44:20.886Z,2.90
2023-05-03T00:46:49.293Z,2.97
2023-05-03T00:49:17.926Z,2.83
2023-05-03T00:51:46.460Z,2.73
2023-05-03T00:54:15.010Z,2.83
2023-05-03T00:56:51.061Z,2.87
2023-05-03T00:59:21.488Z,2.47
2023-05-03T01:01:51.040Z,2.80
2023-05-03T01:04:20.233Z,2.57
2023-05-03T01:06:54.340Z,3.07
2023-05-03T01:09:24.915Z,2.60
2023-05-03T01:11:57.136Z,3.10
2023-05-03T01:14:30.362Z,2.90
2023-05-03T01:17:00.334Z,3.30
2023-05-03T01:19:30.885Z,2.57
2023-05-03T01:22:01.793Z,3.00
2023-05-03T01:24:31.853Z,2.50
2023-05-03T01:27:01.642Z,3.00
2023-05-03T01:29:30.158Z,2.80
2023-05-03T01:32:01.758Z,2.40
2023-05-03T01:34:33.757Z,2.90
2023-05-03T01:37:03.305Z,2.53
2023-05-03T01:39:34.034Z,2.73
2023-05-03T01:42:04.055Z,2.67
2023-05-03T01:44:32.638Z,2.70
2023-05-03T01:47:01.373Z,2.60
2023-05-03T01:49:29.862Z,2.77
2023-05-03T01:51:58.311Z,2.90
2023-05-03T01:54:26.623Z,2.80
2023-05-03T01:56:54.982Z,2.57
2023-05-03T01:59:24.811Z,2.73
2023-05-03T02:01:53.243Z,3.23
2023-05-03T02:04:21.688Z,2.33
2023-05-03T02:06:50.334Z,3.83
2023-05-03T02:09:18.767Z,2.87
2023-05-03T02:11:47.171Z,2.47
2023-05-03T02:14:15.746Z,2.30
2023-05-03T02:16:45.949Z,2.73
2023-05-03T02:19:14.325Z,2.70
2023-05-03T02:21:42.678Z,2.80
2023-05-03T02:24:11.045Z,3.97
2023-05-03T02:26:39.431Z,3.00
2023-05-03T02:29:07.910Z,2.83
2023-05-03T02:31:36.484Z,2.80
2023-05-03T02:34:06.155Z,2.93
2023-05-03T02:36:34.588Z,2.97
2023-05-03T02:39:03.640Z,2.97
2023-05-03T02:41:32.058Z,2.83
2023-05-03T02:44:00.943Z,3.23
2023-05-03T02:46:29.325Z,2.87
2023-05-03T02:48:57.708Z,3.10
2023-05-03T02:51:28.331Z,2.73
2023-05-03T02:53:56.810Z,2.87
2023-05-03T02:56:26.533Z,2.70
2023-05-03T02:58:54.982Z,2.93
2023-05-03T03:01:23.522Z,2.63
2023-05-03T03:03:52.107Z,2.90
2023-05-03T03:06:20.690Z,2.50
2023-05-03T03:08:50.474Z,3.37
2023-05-03T03:11:19.206Z,2.67
2023-05-03T03:13:47.576Z,2.50
2023-05-03T03:16:16.057Z,2.97
2023-05-03T03:18:44.550Z,3.63
2023-05-03T03:21:12.882Z,2.73
2023-05-03T03:23:41.194Z,2.70
2023-05-03T03:26:10.975Z,2.40
2023-05-03T03:28:39.340Z,2.47
2023-05-03T03:31:07.817Z,2.60
2023-05-03T03:33:36.356Z,2.70
2023-05-03T03:36:06.725Z,2.60
2023-05-03T03:38:35.210Z,2.20
2023-05-03T03:41:03.999Z,2.80
2023-05-03T03:43:33.757Z,2.17
2023-05-03T03:46:02.127Z,2.83
2023-05-03T03:48:30.529Z,2.80
2023-05-03T03:50:58.861Z,3.20
2023-05-03T03:53:27.274Z,2.60
2023-05-03T03:55:56.419Z,2.60
2023-05-03T03:58:24.900Z,2.80
2023-05-03T04:00:54.760Z,3.00
2023-05-03T04:03:23.310Z,3.20
2023-05-03T04:05:52.359Z,3.13
2023-05-03T04:08:20.736Z,2.93
2023-05-03T04:10:49.147Z,2.97
2023-05-03T04:13:17.577Z,2.90
2023-05-03T04:15:45.990Z,2.90
2023-05-03T04:18:15.780Z,2.93
2023-05-03T04:20:44.103Z,2.80
2023-05-03T04:23:12.573Z,2.70
2023-05-03T04:25:46.598Z,3.20
2023-05-03T04:28:15.172Z,3.30
2023-05-03T04:30:45.155Z,3.37
2023-05-03T04:33:13.732Z,2.93
2023-05-03T04:35:43.589Z,2.90
2023-05-03T04:38:11.965Z,2.60
2023-05-03T04:40:40.489Z,2.70
2023-05-03T04:43:08.844Z,3.40
2023-05-03T04:45:37.282Z,2.33
2023-05-03T04:48:06.040Z,3.10
2023-05-03T04:50:34.581Z,3.30
2023-05-03T04:53:04.516Z,2.70
2023-05-03T04:55:32.885Z,2.87
2023-05-03T04:58:02.121Z,2.90
2023-05-03T05:00:30.902Z,3.23
2023-05-03T05:02:59.641Z,2.80
2023-05-03T05:05:28.221Z,3.07
2023-05-03T05:07:56.600Z,3.20
2023-05-03T05:10:26.626Z,2.60
2023-05-03T05:12:55.095Z,3.00
2023-05-03T05:15:23.525Z,2.57
2023-05-03T05:17:52.202Z,2.70
2023-05-03T05:20:20.853Z,3.10
2023-05-03T05:22:49.273Z,2.63
2023-05-03T05:25:17.554Z,2.60
2023-05-03T05:27:47.538Z,3.40
2023-05-03T05:30:16.211Z,2.37
2023-05-03T05:32:44.608Z,2.77
2023-05-03T05:35:13.236Z,2.77
2023-05-03T05:37:41.638Z,3.10
2023-05-03T05:40:10.592Z,3.00
2023-05-03T05:42:39.022Z,2.33
2023-05-03T05:45:09.549Z,2.43
2023-05-03T05:47:37.932Z,3.30
2023-05-03T05:50:16.845Z,2.90
2023-05-03T05:52:46.833Z,2.93
2023-05-03T05:55:15.986Z,3.20
2023-05-03T05:57:44.553Z,3.40
2023-05-03T06:00:15.600Z,3.73
2023-05-03T06:02:44.532Z,3.67
2023-05-03T06:05:13.351Z,3.13
2023-05-03T06:07:41.807Z,3.23
2023-05-03T06:10:10.350Z,3.67
2023-05-03T06:12:38.868Z,3.87
2023-05-03T06:15:07.876Z,4.70
2023-05-03T06:17:37.822Z,4.57
2023-05-03T06:20:06.815Z,4.00
2023-05-03T06:22:35.526Z,4.00
2023-05-03T06:25:03.849Z,3.40
2023-05-03T06:27:32.324Z,3.60
2023-05-03T06:30:00.951Z,3.80
2023-05-03T06:32:29.607Z,3.87
2023-05-03T06:35:01.078Z,3.87
2023-05-03T06:37:29.567Z,3.30
2023-05-03T06:39:58.094Z,2.73
2023-05-03T06:42:26.951Z,3.03
2023-05-03T06:44:55.370Z,2.90
2023-05-03T06:47:23.746Z,2.80
2023-05-03T06:49:52.126Z,3.50
2023-05-03T06:52:21.896Z,3.97
2023-05-03T06:54:51.212Z,3.63
2023-05-03T06:57:19.581Z,3.70
2023-05-03T06:59:48.098Z,4.20
2023-05-03T07:02:16.458Z,4.67
2023-05-03T07:04:44.874Z,6.03
2023-05-03T07:07:13.282Z,6.60
2023-05-03T07:09:43.923Z,7.27
2023-05-03T07:12:12.965Z,7.40
2023-05-03T07:14:41.463Z,9.70
2023-05-03T07:17:09.984Z,10.83
2023-05-03T07:19:38.425Z,10.10
2023-05-03T07:22:07.185Z,10.37
2023-05-03T07:24:35.681Z,11.73
2023-05-03T07:27:05.592Z,11.50
2023-05-03T07:29:34.068Z,12.07
2023-05-03T07:32:03.699Z,12.57
2023-05-03T07:34:32.802Z,12.63
2023-05-03T07:37:01.379Z,13.90
2023-05-03T07:39:29.830Z,13.17
2023-05-03T07:41:58.201Z,13.23
2023-05-03T07:44:27.984Z,14.27
2023-05-03T07:46:56.507Z,13.07
2023-05-03T07:49:25.145Z,13.10
2023-05-03T07:51:53.632Z,14.43
2023-05-03T07:54:22.000Z,14.23
2023-05-03T07:56:50.377Z,13.73
2023-05-03T07:59:18.728Z,13.20
2023-05-03T08:01:48.583Z,12.97
2023-05-03T08:04:17.029Z,8.07
2023-05-03T08:06:46.092Z,13.97
2023-05-03T08:09:14.783Z,13.40
2023-05-03T08:11:44.390Z,12.80
2023-05-03T08:14:12.972Z,13.23
2023-05-03T08:16:41.531Z,12.30
2023-05-03T08:19:11.276Z,12.20
2023-05-03T08:21:39.680Z,13.07
2023-05-03T08:24:08.464Z,12.37
2023-05-03T08:26:37.793Z,13.17
2023-05-03T08:29:06.334Z,14.30
2023-05-03T08:31:35.271Z,12.90
2023-05-03T08:34:04.013Z,12.70
2023-05-03T08:36:33.710Z,12.20
2023-05-03T08:39:05.875Z,10.47
2023-05-03T08:41:34.574Z,11.17
2023-05-03T08:44:05.513Z,11.93
2023-05-03T08:46:37.181Z,11.50
2023-05-03T08:49:06.877Z,11.80
2023-05-03T08:51:36.776Z,11.50
2023-05-03T08:54:05.567Z,12.30
2023-05-03T08:56:35.585Z,12.47
2023-05-03T08:59:08.017Z,11.80
2023-05-03T09:01:37.783Z,10.70
2023-05-03T09:04:06.786Z,10.90
2023-05-03T09:06:36.980Z,10.47
2023-05-03T09:09:07.434Z,10.67
2023-05-03T09:11:36.770Z,10.60
2023-05-03T09:14:15.091Z,10.53
2023-05-03T09:16:44.800Z,9.30
2023-05-03T09:19:13.931Z,9.40
2023-05-03T09:21:44.126Z,9.50
2023-05-03T09:24:15.939Z,9.90
2023-05-03T09:26:45.678Z,9.60
2023-05-03T09:29:28.396Z,9.70
2023-05-03T09:32:05.687Z,8.87
2023-05-03T09:34:34.824Z,9.70
2023-05-03T09:37:04.585Z,8.27
2023-05-03T09:39:33.468Z,10.00
2023-05-03T09:42:11.933Z,10.30
2023-05-03T09:44:44.161Z,8.60
2023-05-03T09:47:12.939Z,8.70
2023-05-03T09:49:41.521Z,8.73
2023-05-03T09:52:11.601Z,9.80
2023-05-03T09:54:40.920Z,9.80
2023-05-03T09:57:10.417Z,9.27
2023-05-03T09:59:40.108Z,8.43
2023-05-03T10:02:09.679Z,8.50
2023-05-03T10:04:41.744Z,8.20
2023-05-03T10:07:14.332Z,8.80
2023-05-03T10:09:44.988Z,8.37
2023-05-03T10:12:17.300Z,8.10
2023-05-03T10:14:47.259Z,8.47
2023-05-03T10:17:18.381Z,7.40
2023-05-03T10:19:51.707Z,7.13
2023-05-03T10:22:21.722Z,5.97
2023-05-03T10:25:05.175Z,5.90
2023-05-03T10:27:39.276Z,6.77
2023-05-03T10:30:09.402Z,8.40
2023-05-03T10:32:39.881Z,8.73
2023-05-03T10:35:10.268Z,7.17
2023-05-03T10:37:42.562Z,7.30
2023-05-03T10:40:12.133Z,7.47
2023-05-03T10:42:40.960Z,7.70
2023-05-03T10:45:12.115Z,7.13
2023-05-03T10:47:40.970Z,6.33
2023-05-03T10:50:28.892Z,6.47
2023-05-03T10:52:59.219Z,6.60
2023-05-03T10:55:28.072Z,6.73
2023-05-03T10:57:57.715Z,5.90
2023-05-03T11:00:30.024Z,6.00
2023-05-03T11:03:09.742Z,7.33
2023-05-03T11:05:38.998Z,8.53
2023-05-03T11:08:12.808Z,8.80
2023-05-03T11:10:41.881Z,7.40
2023-05-03T11:13:10.325Z,8.73
2023-05-03T11:15:38.843Z,8.60
2023-05-03T11:18:08.051Z,8.67
2023-05-03T11:20:37.070Z,8.70
2023-05-03T11:23:06.226Z,8.87
2023-05-03T11:25:36.027Z,9.93
2023-05-03T11:28:05.176Z,11.47
2023-05-03T11:30:35.005Z,9.67
2023-05-03T11:33:03.965Z,9.97
2023-05-03T11:35:33.097Z,8.63
2023-05-03T11:38:01.606Z,10.30
2023-05-03T11:40:29.983Z,9.80
2023-05-03T11:43:00.405Z,11.90
2023-05-03T11:45:30.734Z,9.40
2023-05-03T11:47:59.500Z,10.60
2023-05-03T11:50:45.735Z,9.57
2023-05-03T11:53:14.359Z,11.77
2023-05-03T11:55:43.974Z,10.07
2023-05-03T12:12:26.623Z,10.20
2023-05-03T12:14:59.790Z,9.27
2023-05-03T12:17:39.200Z,9.97
2023-05-03T12:21:05.039Z,10.60
2023-05-03T12:23:09.346Z,10.60
2023-05-03T12:25:40.471Z,9.17
2023-05-03T12:28:20.304Z,10.63
2023-05-03T12:30:52.706Z,9.20
2023-05-03T12:33:22.843Z,8.60
2023-05-03T12:35:53.905Z,7.97
2023-05-03T12:38:24.592Z,8.33
2023-05-03T12:40:54.850Z,7.50
2023-05-03T12:43:24.866Z,8.67
2023-05-03T12:46:15.407Z,8.73
2023-05-03T12:48:45.859Z,8.43
2023-05-03T12:53:47.579Z,8.93
2023-05-03T12:56:16.953Z,9.73
2023-05-03T13:02:17.540Z,9.70
2023-05-03T13:06:48.259Z,7.23
2023-05-03T13:09:21.163Z,6.53
2023-05-03T13:11:52.330Z,5.50
2023-05-03T13:14:23.226Z,6.50
2023-05-03T13:16:52.086Z,5.50
2023-05-03T13:19:20.796Z,5.50
2023-05-03T13:21:49.894Z,5.20
2023-05-03T13:24:18.370Z,4.90
2023-05-03T13:26:47.057Z,6.27
2023-05-03T13:29:15.498Z,5.93
2023-05-03T13:31:45.249Z,5.90
2023-05-03T13:34:13.670Z,6.10
2023-05-03T13:36:41.998Z,6.50
2023-05-03T13:39:10.797Z,6.97
2023-05-03T13:41:42.186Z,6.47
2023-05-03T13:44:11.714Z,6.33
2023-05-03T13:46:41.042Z,5.77
2023-05-03T13:49:11.374Z,5.43
2023-05-03T13:51:39.794Z,5.10
2023-05-03T13:54:08.544Z,5.83
2023-05-03T13:56:38.084Z,5.30
2023-05-03T13:59:08.999Z,4.77
2023-05-03T14:01:37.782Z,4.83
2023-05-03T14:04:06.567Z,4.90
2023-05-03T14:06:38.290Z,4.33
2023-05-03T14:09:08.881Z,4.27
2023-05-03T14:11:37.973Z,4.63
2023-05-03T14:14:06.394Z,5.20
2023-05-03T14:19:06.266Z,6.43
2023-05-03T14:21:36.341Z,4.80
2023-05-03T14:24:04.803Z,5.10
2023-05-03T14:26:34.075Z,5.60
2023-05-03T14:29:02.636Z,5.83
2023-05-03T14:31:31.358Z,6.30
2023-05-03T14:34:00.668Z,7.03
2023-05-03T14:36:33.351Z,6.97
2023-05-03T14:39:03.312Z,6.73
2023-05-03T14:41:32.126Z,7.10
2023-05-03T14:44:00.521Z,7.60
2023-05-03T14:46:28.953Z,7.10
2023-05-03T14:48:57.303Z,7.30
2023-05-03T14:51:25.599Z,7.90
2023-05-03T14:53:55.232Z,7.83
2023-05-03T14:56:25.057Z,7.73
2023-05-03T14:58:53.423Z,6.77
2023-05-03T15:01:22.319Z,8.00
2023-05-03T15:03:51.311Z,8.70
2023-05-03T15:06:25.106Z,7.87
2023-05-03T15:08:55.054Z,7.60
2023-05-03T15:11:24.888Z,8.10
2023-05-03T15:13:53.424Z,7.70
2023-05-03T15:16:21.830Z,8.00
2023-05-03T15:18:50.332Z,7.60
2023-05-03T15:21:22.319Z,8.00
2023-05-03T15:23:51.882Z,7.07
2023-05-03T15:26:20.448Z,7.23
2023-05-03T15:28:50.252Z,6.30
2023-05-03T15:31:19.540Z,6.23
2023-05-03T15:33:48.067Z,5.80
2023-05-03T15:36:17.476Z,6.93
2023-05-03T15:38:46.756Z,5.80
2023-05-03T15:41:15.242Z,4.83
2023-05-03T15:43:44.097Z,5.40
2023-05-03T15:46:14.241Z,5.40
2023-05-03T15:48:42.646Z,5.17
2023-05-03T15:51:11.025Z,4.57
2023-05-03T15:53:41.083Z,4.00
2023-05-03T15:56:11.318Z,4.70
2023-05-03T15:58:39.702Z,5.37
2023-05-03T16:01:08.072Z,12.57
2023-05-03T16:03:37.855Z,7.40
2023-05-03T16:06:07.307Z,7.40
2023-05-03T16:08:35.733Z,5.63
2023-05-03T16:11:04.169Z,5.20
2023-05-03T16:13:32.506Z,5.03
2023-05-03T16:16:02.595Z,4.70
2023-05-03T16:18:31.336Z,4.80
2023-05-03T16:21:02.576Z,5.50
2023-05-03T16:23:31.194Z,5.60
2023-05-03T16:25:59.655Z,5.03
2023-05-03T16:28:28.335Z,4.90
2023-05-03T16:30:56.702Z,5.23
2023-05-03T16:33:25.156Z,5.60
2023-05-03T16:35:53.623Z,5.40
2023-05-03T16:38:24.026Z,4.90
2023-05-03T16:40:52.426Z,5.40
2023-05-03T16:43:20.860Z,5.00
2023-05-03T16:45:56.426Z,5.27
2023-05-03T16:48:24.997Z,4.90
2023-05-03T16:50:53.364Z,5.13
2023-05-03T16:53:23.276Z,5.30
2023-05-03T16:55:51.588Z,5.17
2023-05-03T16:58:20.133Z,4.87
2023-05-03T17:00:49.002Z,5.60
2023-05-03T17:03:17.854Z,5.40
2023-05-03T17:05:46.553Z,4.70
2023-05-03T17:08:15.493Z,4.90
2023-05-03T17:10:45.409Z,5.20
2023-05-03T17:13:13.929Z,4.70
2023-05-03T17:15:42.419Z,5.10
2023-05-03T17:18:11.752Z,3.73
2023-05-03T17:20:40.201Z,4.60
2023-05-03T17:23:09.724Z,5.30
2023-05-03T17:25:38.135Z,4.77
2023-05-03T17:28:08.590Z,4.83
2023-05-03T17:30:37.047Z,5.70
2023-05-03T17:33:05.810Z,4.40
2023-05-03T17:35:34.739Z,5.50
2023-05-03T17:38:03.116Z,5.70
2023-05-03T17:40:31.774Z,4.70
2023-05-03T17:43:00.224Z,5.13
2023-05-03T17:45:29.981Z,4.80
2023-05-03T17:47:58.877Z,4.37
2023-05-03T17:50:27.304Z,4.10
2023-05-03T17:52:57.496Z,5.00
2023-05-03T17:55:26.130Z,4.97
2023-05-03T17:57:54.549Z,4.70
2023-05-03T18:00:25.394Z,4.43
2023-05-03T18:02:55.202Z,4.63
2023-05-03T18:05:23.610Z,5.50
2023-05-03T18:07:51.965Z,5.00
2023-05-03T18:10:20.567Z,5.03
2023-05-03T18:12:49.094Z,5.60
2023-05-03T18:15:17.887Z,4.97
2023-05-03T18:17:46.714Z,5.10
2023-05-03T18:20:16.614Z,5.57
2023-05-03T18:22:45.036Z,5.77
2023-05-03T18:25:13.631Z,6.23
2023-05-03T18:27:41.962Z,5.60
2023-05-03T18:30:10.779Z,6.40
2023-05-03T18:32:39.211Z,6.87
2023-05-03T18:35:08.205Z,6.30
2023-05-03T18:37:37.992Z,5.70
2023-05-03T18:40:07.003Z,6.80
2023-05-03T18:42:35.747Z,7.40
2023-05-03T18:45:04.798Z,8.63
2023-05-03T18:47:33.139Z,7.40
2023-05-03T18:50:01.682Z,11.60
2023-05-03T18:52:30.194Z,14.20
2023-05-03T18:55:00.006Z,22.03
2023-05-03T18:57:28.877Z,12.60
2023-05-03T19:00:01.201Z,17.70
2023-05-03T19:02:31.393Z,16.97
2023-05-03T19:05:00.685Z,20.30
2023-05-03T19:07:29.413Z,14.00
2023-05-03T19:09:58.304Z,7.87
2023-05-03T19:12:28.143Z,6.90
2023-05-03T19:14:56.471Z,5.47
2023-05-03T19:17:25.029Z,12.03
2023-05-03T19:19:53.420Z,11.13
2023-05-03T19:22:21.833Z,19.70
2023-05-03T19:24:51.131Z,10.80
2023-05-03T19:27:19.782Z,11.30
2023-05-03T19:29:49.639Z,14.93
2023-05-03T19:32:17.970Z,14.70
2023-05-03T19:34:46.457Z,10.10
2023-05-03T19:37:15.194Z,8.93
2023-05-03T19:39:43.566Z,21.17
2023-05-03T19:42:11.967Z,15.87
2023-05-03T19:44:40.388Z,15.20
2023-05-03T19:47:10.219Z,11.53
2023-05-03T19:49:38.618Z,11.63
2023-05-03T19:52:07.099Z,12.93
2023-05-03T19:54:35.374Z,12.27
2023-05-03T19:57:07.590Z,16.43
2023-05-03T19:59:36.425Z,14.57
2023-05-03T20:02:04.869Z,15.17
2023-05-03T20:04:34.625Z,13.20
2023-05-03T20:07:03.042Z,11.67
2023-05-03T20:09:31.432Z,13.27
2023-05-03T20:12:00.070Z,7.80
2023-05-03T20:14:28.509Z,6.70
2023-05-03T20:16:59.899Z,6.40
2023-05-03T20:19:28.378Z,6.77
2023-05-03T20:21:58.296Z,6.50
2023-05-03T20:24:26.772Z,7.00
2023-05-03T20:26:55.119Z,7.10
2023-05-03T20:29:24.007Z,7.00
2023-05-03T20:31:53.484Z,6.50
2023-05-03T20:34:21.987Z,6.23
2023-05-03T20:36:50.406Z,7.57
2023-05-03T20:39:20.295Z,6.17
2023-05-03T20:41:48.529Z,7.50
2023-05-03T20:44:16.982Z,6.33
2023-05-03T20:46:45.682Z,6.77
2023-05-03T20:49:14.096Z,5.90
2023-05-03T20:51:42.486Z,6.77
2023-05-03T20:54:11.223Z,6.80
2023-05-03T20:56:40.974Z,6.80
2023-05-03T20:59:09.362Z,6.27
2023-05-03T21:01:41.175Z,7.20
2023-05-03T21:04:09.659Z,6.07
2023-05-03T21:06:38.423Z,6.80
2023-05-03T21:09:06.857Z,6.37
2023-05-03T21:11:35.321Z,6.70
2023-05-03T21:14:05.046Z,7.63
2023-05-03T21:16:33.407Z,6.33
2023-05-03T21:19:03.691Z,7.03
2023-05-03T21:21:33.058Z,6.60
2023-05-03T21:24:01.528Z,6.80
2023-05-03T21:26:30.332Z,7.00
2023-05-03T21:29:00.185Z,7.00
2023-05-03T21:31:30.157Z,6.93
2023-05-03T21:33:59.137Z,6.70
2023-05-03T21:36:27.529Z,6.93
2023-05-03T21:38:55.893Z,7.63
2023-05-03T21:41:24.590Z,6.60
2023-05-03T21:43:52.954Z,7.17
2023-05-03T21:46:21.384Z,6.80
2023-05-03T21:48:51.256Z,7.43
2023-05-03T21:51:19.989Z,6.50
2023-05-03T21:53:48.330Z,7.17
2023-05-03T21:56:16.693Z,7.37
2023-05-03T21:58:46.258Z,7.60
2023-05-03T22:01:19.568Z,6.67
2023-05-03T22:03:48.143Z,6.87
2023-05-03T22:06:17.969Z,6.73
2023-05-03T22:08:46.378Z,7.00
2023-05-03T22:11:14.735Z,7.87
2023-05-03T22:13:58.871Z,9.00
2023-05-03T22:16:31.653Z,7.73
2023-05-03T22:19:00.170Z,8.13
2023-05-03T22:21:30.038Z,8.57
2023-05-03T22:23:58.349Z,7.93
2023-05-03T22:26:26.751Z,8.23
2023-05-03T22:28:55.569Z,8.80
2023-05-03T22:31:24.971Z,6.90
2023-05-03T22:33:53.440Z,7.90
2023-05-03T22:36:21.780Z,7.40
2023-05-03T22:38:55.487Z,7.77
2023-05-03T22:41:24.324Z,7.13
2023-05-03T22:43:52.703Z,7.50
2023-05-03T22:46:21.299Z,8.03
2023-05-03T22:48:49.870Z,8.13
2023-05-03T22:51:18.301Z,7.90
2023-05-03T22:53:46.731Z,7.73
2023-05-03T22:56:16.544Z,7.90
2023-05-03T22:58:44.973Z,7.43
2023-05-03T23:01:13.545Z,7.37
2023-05-03T23:03:42.765Z,7.23
2023-05-03T23:06:11.498Z,7.70
2023-05-03T23:08:39.983Z,8.10
2023-05-03T23:11:08.337Z,7.83
2023-05-03T23:13:38.337Z,7.90
2023-05-03T23:16:07.977Z,7.63
2023-05-03T23:18:36.711Z,7.07
2023-05-03T23:21:05.555Z,8.53
2023-05-03T23:23:34.705Z,7.40
2023-05-03T23:26:03.082Z,7.10
2023-05-03T23:28:31.824Z,7.70
2023-05-03T23:31:02.269Z,7.07
2023-05-03T23:33:31.043Z,7.63
2023-05-03T23:35:59.499Z,7.07
2023-05-03T23:38:27.986Z,7.40
2023-05-03T23:40:56.346Z,7.60
2023-05-03T23:43:24.743Z,8.17
2023-05-03T23:45:53.216Z,8.17
2023-05-03T23:48:22.994Z,6.60
2023-05-03T23:50:51.374Z,7.67
2023-05-03T23:53:19.735Z,7.77
2023-05-03T23:55:48.087Z,7.60
2023-05-03T23:58:16.385Z,7.53
